createdAt,value
2022-08-17T00:00:55.022Z,63.23
2022-08-17T00:01:59.959Z,63.15
2022-08-17T00:03:17.505Z,63.13
2022-08-17T00:04:20.759Z,63.21
2022-08-17T00:05:23.971Z,63.17
2022-08-17T00:06:29.273Z,63.19
2022-08-17T00:07:32.538Z,63.27
2022-08-17T00:08:41.979Z,63.14
2022-08-17T00:09:45.044Z,62.96
2022-08-17T00:10:49.033Z,62.98
2022-08-17T00:12:40.910Z,63.09
2022-08-17T00:12:56.996Z,63.17
2022-08-17T00:14:06.740Z,63.18
2022-08-17T00:15:10.900Z,63.10
2022-08-17T00:16:56.650Z,62.90
2022-08-17T00:17:31.211Z,62.75
2022-08-17T00:19:07.858Z,62.73
2022-08-17T00:19:39.555Z,62.67
2022-08-17T00:20:43.062Z,62.69
2022-08-17T00:22:29.389Z,62.66
2022-08-17T00:23:04.758Z,62.56
2022-08-17T00:24:08.179Z,62.54
2022-08-17T00:25:14.624Z,62.54
2022-08-17T00:26:43.589Z,62.71
2022-08-17T00:27:24.809Z,62.76
2022-08-17T00:28:27.812Z,62.95
2022-08-17T00:29:32.577Z,62.95
2022-08-17T00:30:50.835Z,62.79
2022-08-17T00:31:41.047Z,62.86
2022-08-17T00:33:22.799Z,63.00
2022-08-17T00:33:51.293Z,63.14
2022-08-17T00:34:54.326Z,63.28
2022-08-17T00:35:58.471Z,63.22
2022-08-17T00:37:01.568Z,63.18
2022-08-17T00:38:06.690Z,63.17
2022-08-17T00:39:09.584Z,62.88
2022-08-17T00:40:14.736Z,62.53
2022-08-17T00:41:21.257Z,62.40
2022-08-17T00:42:27.593Z,62.46
2022-08-17T00:43:47.992Z,62.47
2022-08-17T00:44:51.023Z,62.53
2022-08-17T00:45:54.638Z,62.47
2022-08-17T00:46:57.785Z,62.55
2022-08-17T00:48:00.753Z,62.50
2022-08-17T00:49:05.330Z,62.25
2022-08-17T00:50:12.445Z,62.19
2022-08-17T00:51:21.825Z,62.17
2022-08-17T00:52:28.354Z,62.13
2022-08-17T00:53:33.434Z,62.11
2022-08-17T00:54:41.726Z,62.16
2022-08-17T00:55:44.301Z,62.19
2022-08-17T00:56:50.909Z,62.25
2022-08-17T00:57:57.302Z,62.29
2022-08-17T00:59:02.503Z,62.30
2022-08-17T01:00:09.529Z,62.38
2022-08-17T01:01:21.405Z,62.37
2022-08-17T01:02:19.714Z,62.41
2022-08-17T01:03:26.097Z,62.39
2022-08-17T01:04:31.117Z,62.38
2022-08-17T01:05:38.006Z,62.34
2022-08-17T01:06:44.882Z,62.41
2022-08-17T01:07:50.060Z,62.40
2022-08-17T01:08:57.467Z,62.53
2022-08-17T01:10:03.439Z,62.46
2022-08-17T01:11:08.031Z,62.39
2022-08-17T01:12:11.932Z,62.27
2022-08-17T01:13:15.785Z,62.24
2022-08-17T01:14:20.989Z,62.26
2022-08-17T01:15:24.073Z,62.36
2022-08-17T01:16:31.063Z,62.33
2022-08-17T01:17:34.520Z,62.30
2022-08-17T01:18:37.714Z,62.33
2022-08-17T01:19:42.778Z,62.24
2022-08-17T01:20:51.883Z,62.15
2022-08-17T01:22:13.875Z,62.05
2022-08-17T01:23:20.888Z,61.88
2022-08-17T01:24:24.026Z,61.77
2022-08-17T01:25:29.046Z,61.85
2022-08-17T01:26:35.035Z,61.86
2022-08-17T01:27:38.430Z,61.87
2022-08-17T01:28:53.778Z,61.85
2022-08-17T01:29:50.664Z,61.94
2022-08-17T01:30:58.419Z,61.94
2022-08-17T01:32:03.313Z,61.94
2022-08-17T01:33:08.098Z,61.94
2022-08-17T01:34:12.339Z,62.03
2022-08-17T01:35:15.444Z,62.03
2022-08-17T01:36:20.049Z,61.81
2022-08-17T01:37:29.404Z,61.78
2022-08-17T01:38:33.216Z,61.80
2022-08-17T01:39:39.874Z,61.76
2022-08-17T01:40:46.669Z,61.70
2022-08-17T01:41:53.167Z,61.76
2022-08-17T01:42:59.726Z,61.82
2022-08-17T01:44:05.147Z,61.88
2022-08-17T01:45:16.172Z,61.84
2022-08-17T01:46:29.024Z,61.86
2022-08-17T01:47:32.212Z,61.69
2022-08-17T01:48:38.660Z,61.65
2022-08-17T01:49:41.866Z,61.72
2022-08-17T01:50:47.191Z,61.68
2022-08-17T01:51:50.559Z,61.69
2022-08-17T01:52:56.989Z,61.39
2022-08-17T01:54:06.258Z,61.39
2022-08-17T01:55:10.832Z,61.86
2022-08-17T01:56:17.737Z,61.96
2022-08-17T01:57:20.659Z,62.01
2022-08-17T01:58:23.827Z,62.02
2022-08-17T01:59:26.955Z,62.09
2022-08-17T02:00:46.693Z,62.02
2022-08-17T02:01:37.350Z,61.97
2022-08-17T02:02:40.281Z,61.89
2022-08-17T02:03:56.107Z,61.94
2022-08-17T02:04:48.305Z,61.92
2022-08-17T02:05:52.684Z,61.85
2022-08-17T02:06:55.886Z,61.94
2022-08-17T02:08:00.823Z,61.98
2022-08-17T02:09:05.513Z,61.99
2022-08-17T02:10:16.672Z,62.06
2022-08-17T02:11:18.356Z,61.92
2022-08-17T02:12:39.171Z,61.99
2022-08-17T02:13:31.359Z,62.02
2022-08-17T02:14:34.380Z,62.13
2022-08-17T02:15:37.566Z,62.14
2022-08-17T02:16:41.765Z,62.19
2022-08-17T02:17:45.295Z,62.23
2022-08-17T02:18:48.299Z,62.27
2022-08-17T02:19:51.370Z,62.30
2022-08-17T02:20:54.973Z,62.27
2022-08-17T02:21:57.872Z,62.28
2022-08-17T02:23:02.433Z,62.28
2022-08-17T02:24:10.264Z,62.22
2022-08-17T02:25:16.369Z,62.31
2022-08-17T02:26:25.760Z,62.35
2022-08-17T02:27:26.397Z,62.36
2022-08-17T02:28:29.598Z,62.44
2022-08-17T02:29:32.697Z,62.64
2022-08-17T02:31:00.970Z,62.68
2022-08-17T02:31:42.352Z,62.77
2022-08-17T02:32:45.268Z,62.67
2022-08-17T02:34:00.554Z,62.59
2022-08-17T02:34:54.001Z,62.59
2022-08-17T02:35:57.374Z,62.65
2022-08-17T02:37:00.350Z,62.60
2022-08-17T02:38:05.634Z,62.59
2022-08-17T02:39:10.333Z,62.58
2022-08-17T02:40:14.129Z,62.57
2022-08-17T02:41:18.197Z,62.59
2022-08-17T02:42:27.247Z,62.54
2022-08-17T02:43:30.783Z,62.52
2022-08-17T02:44:35.431Z,62.53
2022-08-17T02:45:39.098Z,62.52
2022-08-17T02:46:42.182Z,62.44
2022-08-17T02:47:45.934Z,62.46
2022-08-17T02:48:48.987Z,62.47
2022-08-17T02:49:55.655Z,62.56
2022-08-17T02:50:57.868Z,62.60
2022-08-17T02:52:04.447Z,62.70
2022-08-17T02:53:07.777Z,62.78
2022-08-17T02:54:39.426Z,62.81
2022-08-17T02:55:19.970Z,63.09
2022-08-17T02:56:24.230Z,63.09
2022-08-17T02:57:27.219Z,63.04
2022-08-17T02:58:34.523Z,63.04
2022-08-17T02:59:35.065Z,63.13
2022-08-17T03:00:45.436Z,63.31
2022-08-17T03:01:48.855Z,63.40
2022-08-17T03:02:52.701Z,63.70
2022-08-17T03:03:56.603Z,63.70
2022-08-17T03:04:59.627Z,63.43
2022-08-17T03:06:03.866Z,63.44
2022-08-17T03:07:07.059Z,63.44
2022-08-17T03:08:11.696Z,63.55
2022-08-17T03:09:16.260Z,63.60
2022-08-17T03:10:19.699Z,63.57
2022-08-17T03:11:23.109Z,63.61
2022-08-17T03:12:30.572Z,63.67
2022-08-17T03:13:33.668Z,63.73
2022-08-17T03:14:41.479Z,63.73
2022-08-17T03:15:45.657Z,63.82
2022-08-17T03:16:48.887Z,63.87
2022-08-17T03:17:53.652Z,64.11
2022-08-17T03:18:56.933Z,64.08
2022-08-17T03:20:00.143Z,63.94
2022-08-17T03:21:03.894Z,63.93
2022-08-17T03:22:36.186Z,63.84
2022-08-17T03:23:12.971Z,63.85
2022-08-17T03:24:16.436Z,63.84
2022-08-17T03:25:27.569Z,63.90
2022-08-17T03:26:31.792Z,63.88
2022-08-17T03:27:35.183Z,63.92
2022-08-17T03:28:38.658Z,63.97
2022-08-17T03:29:41.864Z,63.97
2022-08-17T03:30:45.031Z,63.92
2022-08-17T03:31:49.197Z,64.02
2022-08-17T03:32:54.615Z,63.93
2022-08-17T03:33:57.812Z,63.97
2022-08-17T03:35:02.275Z,63.92
2022-08-17T03:36:06.319Z,63.82
2022-08-17T03:37:09.644Z,63.75
2022-08-17T03:38:15.950Z,63.74
2022-08-17T03:39:19.160Z,63.72
2022-08-17T03:40:34.519Z,63.67
2022-08-17T03:41:27.301Z,63.59
2022-08-17T03:42:32.540Z,63.52
2022-08-17T03:43:35.575Z,63.41
2022-08-17T03:44:38.532Z,63.40
2022-08-17T03:46:00.638Z,63.43
2022-08-17T03:47:22.189Z,63.48
2022-08-17T03:48:43.633Z,63.63
2022-08-17T03:50:06.742Z,63.75
2022-08-17T03:51:15.531Z,63.71
2022-08-17T03:52:36.680Z,63.61
2022-08-17T03:54:12.486Z,63.56
2022-08-17T03:55:36.407Z,63.49
2022-08-17T03:56:42.434Z,63.40
2022-08-17T03:57:45.430Z,63.51
2022-08-17T03:58:49.202Z,63.56
2022-08-17T03:59:53.821Z,63.65
2022-08-17T04:00:56.882Z,63.72
2022-08-17T04:02:08.392Z,63.70
2022-08-17T04:03:12.837Z,63.68
2022-08-17T04:04:16.323Z,63.57
2022-08-17T04:05:21.225Z,63.47
2022-08-17T04:06:24.311Z,63.47
2022-08-17T04:07:29.351Z,63.47
2022-08-17T04:08:32.848Z,63.50
2022-08-17T04:09:36.074Z,63.43
2022-08-17T04:10:44.809Z,63.40
2022-08-17T04:11:44.873Z,63.39
2022-08-17T04:12:52.545Z,63.35
2022-08-17T04:13:56.199Z,63.33
2022-08-17T04:14:59.266Z,63.25
2022-08-17T04:16:02.247Z,63.19
2022-08-17T04:17:07.238Z,63.08
2022-08-17T04:18:11.070Z,63.05
2022-08-17T04:19:14.304Z,62.94
2022-08-17T04:20:20.228Z,62.87
2022-08-17T04:21:23.840Z,62.88
2022-08-17T04:22:33.235Z,63.00
2022-08-17T04:23:34.543Z,62.95
2022-08-17T04:24:37.647Z,62.84
2022-08-17T04:25:44.004Z,62.84
2022-08-17T04:26:53.175Z,62.74
2022-08-17T04:27:54.433Z,62.61
2022-08-17T04:28:59.835Z,62.52
2022-08-17T04:30:06.328Z,62.56
2022-08-17T04:31:11.195Z,62.55
2022-08-17T04:32:14.080Z,62.49
2022-08-17T04:33:20.848Z,62.40
2022-08-17T04:34:24.547Z,62.35
2022-08-17T04:35:31.332Z,62.28
2022-08-17T04:36:35.972Z,62.09
2022-08-17T04:37:38.831Z,62.03
2022-08-17T04:38:43.917Z,61.90
2022-08-17T04:39:48.873Z,61.88
2022-08-17T04:41:11.890Z,61.74
2022-08-17T04:42:16.721Z,61.68
2022-08-17T04:43:22.550Z,61.66
2022-08-17T04:44:36.958Z,61.64
2022-08-17T04:45:31.969Z,61.60
2022-08-17T04:46:35.850Z,61.38
2022-08-17T04:47:39.693Z,61.26
2022-08-17T04:48:48.478Z,61.14
2022-08-17T04:49:53.094Z,61.11
2022-08-17T04:50:57.889Z,61.13
2022-08-17T04:52:04.303Z,61.21
2022-08-17T04:53:05.996Z,61.21
2022-08-17T04:54:12.386Z,61.16
2022-08-17T04:55:15.451Z,61.16
2022-08-17T04:56:19.063Z,61.20
2022-08-17T04:57:22.227Z,61.05
2022-08-17T04:58:25.611Z,60.89
2022-08-17T04:59:28.636Z,60.85
2022-08-17T05:00:33.127Z,60.82
2022-08-17T05:01:38.639Z,60.89
2022-08-17T05:02:50.290Z,61.02
2022-08-17T05:03:55.881Z,61.02
2022-08-17T05:04:59.026Z,60.99
2022-08-17T05:06:03.837Z,61.00
2022-08-17T05:07:07.229Z,60.92
2022-08-17T05:08:10.401Z,60.76
2022-08-17T05:09:13.670Z,60.56
2022-08-17T05:10:17.229Z,60.44
2022-08-17T05:11:20.728Z,60.31
2022-08-17T05:12:23.802Z,60.25
2022-08-17T05:13:31.696Z,60.09
2022-08-17T05:14:34.809Z,60.01
2022-08-17T05:15:45.182Z,59.92
2022-08-17T05:16:46.992Z,59.74
2022-08-17T05:17:49.897Z,59.51
2022-08-17T05:18:53.803Z,59.17
2022-08-17T05:19:56.716Z,58.83
2022-08-17T05:20:59.933Z,58.62
2022-08-17T05:22:05.154Z,58.41
2022-08-17T05:23:11.751Z,58.15
2022-08-17T05:24:42.467Z,58.00
2022-08-17T05:25:25.611Z,57.79
2022-08-17T05:26:29.575Z,57.66
2022-08-17T05:27:35.279Z,57.55
2022-08-17T05:28:37.682Z,57.56
2022-08-17T05:29:41.060Z,57.56
2022-08-17T05:30:45.280Z,57.50
2022-08-17T05:31:50.253Z,57.39
2022-08-17T05:32:58.983Z,57.27
2022-08-17T05:34:02.915Z,57.03
2022-08-17T05:35:06.559Z,56.92
2022-08-17T05:36:42.331Z,56.63
2022-08-17T05:37:18.295Z,56.51
2022-08-17T05:38:22.960Z,56.49
2022-08-17T05:39:26.019Z,56.40
2022-08-17T05:40:32.694Z,56.38
2022-08-17T05:41:35.104Z,56.35
2022-08-17T05:42:38.184Z,56.30
2022-08-17T05:43:42.197Z,56.28
2022-08-17T05:44:45.469Z,56.20
2022-08-17T05:46:07.023Z,56.03
2022-08-17T05:47:10.144Z,55.93
2022-08-17T05:48:14.857Z,55.73
2022-08-17T05:49:21.536Z,55.69
2022-08-17T05:50:31.328Z,55.75
2022-08-17T05:52:00.775Z,55.75
2022-08-17T05:53:07.369Z,55.73
2022-08-17T05:54:45.370Z,55.96
2022-08-17T05:56:22.365Z,55.94
2022-08-17T05:57:36.510Z,56.10
2022-08-17T05:58:50.195Z,56.20
2022-08-17T06:00:02.611Z,56.17
2022-08-17T06:01:13.900Z,56.07
2022-08-17T06:02:49.352Z,55.92
2022-08-17T06:04:02.022Z,55.82
2022-08-17T06:05:25.316Z,55.62
2022-08-17T06:06:44.396Z,55.50
2022-08-17T06:08:07.980Z,55.45
2022-08-17T06:10:29.185Z,55.50
2022-08-17T06:11:36.168Z,55.54
2022-08-17T06:13:00.591Z,55.54
2022-08-17T06:14:19.279Z,55.51
2022-08-17T06:15:31.961Z,54.88
2022-08-17T06:16:38.532Z,54.66
2022-08-17T06:17:42.932Z,54.41
2022-08-17T06:18:49.575Z,54.32
2022-08-17T06:19:56.403Z,54.22
2022-08-17T06:21:03.187Z,54.27
2022-08-17T06:22:09.397Z,54.19
2022-08-17T06:23:17.743Z,54.25
2022-08-17T06:24:30.953Z,54.23
2022-08-17T06:25:37.533Z,54.28
2022-08-17T06:26:43.685Z,54.15
2022-08-17T06:27:53.874Z,53.87
2022-08-17T06:29:00.656Z,53.63
2022-08-17T06:30:24.320Z,53.19
2022-08-17T06:31:30.429Z,53.08
2022-08-17T06:32:38.809Z,52.73
2022-08-17T06:33:43.703Z,52.13
2022-08-17T06:34:46.800Z,51.51
2022-08-17T06:36:02.801Z,50.82
2022-08-17T06:37:18.252Z,50.33
2022-08-17T06:38:43.161Z,49.97
2022-08-17T06:40:02.139Z,49.65
2022-08-17T06:41:09.673Z,49.03
2022-08-17T06:42:59.985Z,48.71
2022-08-17T06:43:34.162Z,48.50
2022-08-17T06:45:05.078Z,48.33
2022-08-17T06:46:12.425Z,48.31
2022-08-17T06:47:28.717Z,48.08
2022-08-17T06:48:51.735Z,48.00
2022-08-17T06:50:11.248Z,48.00
2022-08-17T06:51:18.048Z,48.06
2022-08-17T06:52:46.841Z,48.13
2022-08-17T06:53:41.956Z,48.20
2022-08-17T06:55:18.179Z,48.20
2022-08-17T06:56:53.694Z,47.80
2022-08-17T06:57:40.535Z,47.65
2022-08-17T06:58:44.347Z,47.55
2022-08-17T06:59:55.515Z,47.55
2022-08-17T07:00:58.963Z,47.05
2022-08-17T07:02:05.911Z,47.43
2022-08-17T07:03:24.573Z,47.43
2022-08-17T07:04:30.758Z,47.24
2022-08-17T07:05:44.489Z,47.21
2022-08-17T07:06:53.937Z,47.22
2022-08-17T07:08:12.674Z,47.06
2022-08-17T07:09:22.813Z,47.00
2022-08-17T07:10:28.813Z,47.09
2022-08-17T07:11:41.529Z,47.23
2022-08-17T07:12:45.578Z,47.14
2022-08-17T07:13:58.410Z,47.00
2022-08-17T07:15:14.378Z,46.84
2022-08-17T07:16:27.895Z,46.70
2022-08-17T07:17:47.440Z,46.57
2022-08-17T07:18:38.747Z,46.31
2022-08-17T07:19:45.009Z,46.22
2022-08-17T07:20:51.640Z,46.13
2022-08-17T07:22:07.146Z,46.08
2022-08-17T07:23:16.779Z,46.15
2022-08-17T07:24:36.772Z,46.09
2022-08-17T07:25:39.950Z,46.12
2022-08-17T07:26:43.029Z,46.18
2022-08-17T07:27:52.218Z,46.23
2022-08-17T07:28:55.733Z,46.27
2022-08-17T07:30:17.279Z,46.37
2022-08-17T07:31:20.544Z,46.80
2022-08-17T07:32:33.664Z,46.80
2022-08-17T07:33:37.654Z,46.27
2022-08-17T07:35:12.878Z,46.16
2022-08-17T07:36:29.792Z,46.05
2022-08-17T07:37:33.079Z,45.96
2022-08-17T07:38:39.676Z,45.63
2022-08-17T07:39:59.714Z,45.34
2022-08-17T07:41:04.536Z,45.33
2022-08-17T07:42:09.821Z,45.23
2022-08-17T07:43:22.201Z,45.24
2022-08-17T07:44:20.777Z,45.16
2022-08-17T07:45:42.152Z,45.05
2022-08-17T07:47:09.602Z,44.90
2022-08-17T07:48:19.271Z,44.74
2022-08-17T07:49:34.783Z,44.71
2022-08-17T07:50:38.476Z,44.82
2022-08-17T07:51:49.355Z,45.02
2022-08-17T07:52:52.602Z,44.97
2022-08-17T07:54:13.556Z,44.84
2022-08-17T07:55:11.738Z,44.89
2022-08-17T07:56:37.360Z,44.69
2022-08-17T07:57:40.359Z,44.48
2022-08-17T07:58:43.354Z,44.24
2022-08-17T08:00:12.810Z,44.28
2022-08-17T08:01:17.869Z,44.18
2022-08-17T08:02:38.157Z,44.22
2022-08-17T08:03:43.091Z,44.27
2022-08-17T08:05:01.147Z,44.23
2022-08-17T08:06:00.601Z,43.48
2022-08-17T08:07:07.213Z,43.15
2022-08-17T08:08:43.083Z,43.08
2022-08-17T08:10:01.538Z,43.13
2022-08-17T08:11:18.113Z,42.87
2022-08-17T08:12:33.613Z,42.70
2022-08-17T08:13:42.047Z,42.24
2022-08-17T08:14:57.935Z,41.96
2022-08-17T08:17:29.327Z,41.60
2022-08-17T08:18:53.845Z,41.61
2022-08-17T08:19:40.132Z,41.54
2022-08-17T08:20:52.413Z,41.51
2022-08-17T08:22:19.715Z,41.44
2022-08-17T08:23:38.961Z,41.40
2022-08-17T08:24:48.578Z,41.35
2022-08-17T08:26:00.887Z,41.37
2022-08-17T08:27:38.540Z,41.45
2022-08-17T08:29:06.254Z,41.45
2022-08-17T08:30:19.095Z,41.32
2022-08-17T08:31:28.796Z,41.38
2022-08-17T08:32:58.544Z,41.59
2022-08-17T08:34:47.392Z,41.71
2022-08-17T08:35:30.994Z,41.79
2022-08-17T08:37:12.583Z,41.89
2022-08-17T08:38:05.427Z,41.79
2022-08-17T08:39:17.594Z,41.86
2022-08-17T08:40:38.200Z,42.09
2022-08-17T08:41:57.893Z,42.26
2022-08-17T08:43:04.710Z,42.25
2022-08-17T08:45:00.350Z,42.25
2022-08-17T08:45:56.050Z,42.21
2022-08-17T08:47:18.684Z,42.25
2022-08-17T08:48:56.083Z,42.34
2022-08-17T08:50:05.969Z,42.49
2022-08-17T08:51:26.445Z,42.55
2022-08-17T08:52:42.140Z,42.61
2022-08-17T08:53:51.503Z,42.70
2022-08-17T08:55:12.869Z,42.76
2022-08-17T08:56:39.056Z,42.80
2022-08-17T08:59:32.855Z,42.59
2022-08-17T09:00:40.015Z,42.64
2022-08-17T09:01:49.675Z,42.55
2022-08-17T09:03:11.491Z,42.35
2022-08-17T09:04:25.263Z,41.94
2022-08-17T09:05:55.423Z,41.78
2022-08-17T09:07:20.446Z,41.63
2022-08-17T09:08:39.079Z,41.55
2022-08-17T09:10:04.481Z,41.47
2022-08-17T09:11:21.870Z,41.52
2022-08-17T09:12:29.238Z,41.56
2022-08-17T09:14:02.503Z,41.78
2022-08-17T09:15:33.043Z,41.41
2022-08-17T09:18:59.923Z,41.30
2022-08-17T09:19:37.950Z,41.48
2022-08-17T09:20:53.383Z,41.64
2022-08-17T09:22:00.077Z,41.64
2022-08-17T09:23:07.466Z,41.79
2022-08-17T09:24:25.990Z,42.00
2022-08-17T09:25:32.703Z,42.00
2022-08-17T09:28:35.675Z,41.97
2022-08-17T09:29:44.956Z,41.90
2022-08-17T09:30:51.496Z,41.46
2022-08-17T09:31:57.693Z,41.31
2022-08-17T09:33:04.340Z,41.00
2022-08-17T09:34:16.246Z,40.82
2022-08-17T09:35:24.523Z,40.68
2022-08-17T09:36:37.878Z,40.56
2022-08-17T09:38:04.316Z,40.57
2022-08-17T09:39:16.738Z,40.51
2022-08-17T09:40:35.464Z,40.65
2022-08-17T09:41:49.330Z,40.85
2022-08-17T09:42:56.456Z,40.88
2022-08-17T09:44:28.589Z,40.94
2022-08-17T09:45:48.902Z,41.08
2022-08-17T09:47:10.661Z,40.90
2022-08-17T09:48:19.948Z,40.32
2022-08-17T09:49:32.528Z,40.13
2022-08-17T09:51:05.378Z,40.09
2022-08-17T09:52:12.984Z,40.04
2022-08-17T09:53:16.150Z,39.89
2022-08-17T09:54:40.846Z,39.84
2022-08-17T09:56:04.452Z,39.66
2022-08-17T09:57:29.739Z,39.53
2022-08-17T09:58:29.120Z,39.28
2022-08-17T09:59:56.379Z,39.20
2022-08-17T10:02:43.476Z,38.70
2022-08-17T10:03:59.235Z,38.30
2022-08-17T10:05:14.787Z,38.03
2022-08-17T10:06:33.597Z,38.03
2022-08-17T10:07:42.840Z,38.08
2022-08-17T10:09:00.539Z,37.95
2022-08-17T10:10:14.373Z,38.01
2022-08-17T10:11:50.401Z,37.63
2022-08-17T10:12:57.220Z,37.43
2022-08-17T10:14:36.513Z,37.13
2022-08-17T10:15:27.408Z,36.95
2022-08-17T10:16:49.201Z,36.92
2022-08-17T10:18:06.470Z,36.83
2022-08-17T10:19:36.941Z,36.68
2022-08-17T10:20:50.465Z,36.61
2022-08-17T10:22:35.161Z,36.71
2022-08-17T10:23:44.661Z,36.74
2022-08-17T10:25:22.899Z,36.59
2022-08-17T10:26:21.964Z,36.33
2022-08-17T10:27:34.576Z,36.14
2022-08-17T10:29:02.385Z,36.11
2022-08-17T10:30:07.580Z,36.08
2022-08-17T10:31:34.469Z,36.17
2022-08-17T10:32:41.003Z,36.25
2022-08-17T10:34:11.807Z,36.37
2022-08-17T10:35:33.520Z,36.62
2022-08-17T10:36:53.818Z,36.27
2022-08-17T10:38:03.295Z,35.84
2022-08-17T10:39:09.841Z,35.75
2022-08-17T10:40:32.563Z,35.74
2022-08-17T10:41:42.398Z,35.98
2022-08-17T10:42:51.723Z,36.14
2022-08-17T10:44:38.520Z,36.15
2022-08-17T10:45:30.097Z,36.19
2022-08-17T10:46:53.471Z,36.10
2022-08-17T10:48:05.761Z,35.69
2022-08-17T10:49:23.260Z,35.54
2022-08-17T10:50:57.883Z,35.64
2022-08-17T10:52:22.302Z,35.83
2022-08-17T10:53:41.537Z,36.07
2022-08-17T10:54:58.751Z,36.14
2022-08-17T10:56:16.963Z,36.24
2022-08-17T10:57:32.616Z,36.23
2022-08-17T10:58:54.138Z,36.37
2022-08-17T10:59:58.725Z,36.12
2022-08-17T11:01:03.284Z,35.95
2022-08-17T11:02:17.474Z,35.68
2022-08-17T11:03:24.115Z,35.64
2022-08-17T11:04:47.402Z,35.39
2022-08-17T11:06:01.386Z,35.42
2022-08-17T11:07:27.741Z,35.50
2022-08-17T11:08:50.769Z,35.33
2022-08-17T11:10:06.610Z,35.51
2022-08-17T11:11:33.579Z,35.87
2022-08-17T11:12:49.485Z,36.13
2022-08-17T11:14:09.457Z,36.21
2022-08-17T11:15:34.232Z,36.18
2022-08-17T11:17:15.262Z,36.13
2022-08-17T11:18:27.714Z,36.22
2022-08-17T11:19:42.900Z,36.10
2022-08-17T11:21:09.092Z,35.77
2022-08-17T11:22:33.327Z,35.68
2022-08-17T11:23:40.157Z,35.51
2022-08-17T11:24:47.339Z,35.24
2022-08-17T11:25:54.030Z,35.03
2022-08-17T11:27:23.489Z,35.08
2022-08-17T11:28:34.304Z,35.34
2022-08-17T11:30:01.235Z,35.71
2022-08-17T11:31:10.803Z,35.89
2022-08-17T11:32:47.477Z,36.11
2022-08-17T11:33:56.278Z,36.42
2022-08-17T11:35:24.791Z,36.13
2022-08-17T11:37:10.553Z,36.04
2022-08-17T11:38:20.084Z,35.96
2022-08-17T11:39:26.814Z,36.21
2022-08-17T11:41:05.339Z,36.24
2022-08-17T11:42:35.682Z,36.25
2022-08-17T11:45:32.420Z,36.29
2022-08-17T11:46:35.614Z,36.29
2022-08-17T11:48:28.823Z,36.54
2022-08-17T11:49:42.277Z,36.66
2022-08-17T11:51:08.663Z,36.66
2022-08-17T11:52:36.154Z,36.42
2022-08-17T11:53:42.837Z,36.32
2022-08-17T11:54:48.052Z,36.26
2022-08-17T11:56:00.728Z,36.27
2022-08-17T11:57:27.191Z,36.22
2022-08-17T11:58:35.692Z,35.80
2022-08-17T11:59:43.234Z,35.28
2022-08-17T12:00:51.294Z,35.14
2022-08-17T12:01:56.657Z,35.01
2022-08-17T12:03:22.943Z,35.00
2022-08-17T12:04:31.776Z,35.12
2022-08-17T12:05:36.270Z,35.29
2022-08-17T12:06:56.411Z,35.40
2022-08-17T12:08:14.686Z,35.51
2022-08-17T12:09:21.483Z,35.67
2022-08-17T12:10:31.907Z,35.57
2022-08-17T12:12:10.927Z,35.56
2022-08-17T12:12:54.565Z,35.41
2022-08-17T12:14:00.266Z,35.24
2022-08-17T12:15:10.546Z,35.22
2022-08-17T12:16:17.200Z,35.24
2022-08-17T12:17:41.442Z,35.24
2022-08-17T12:18:37.799Z,35.43
2022-08-17T12:19:42.701Z,35.41
2022-08-17T12:20:53.217Z,35.43
2022-08-17T12:22:23.005Z,35.54
2022-08-17T12:23:39.363Z,35.77
2022-08-17T12:25:01.329Z,36.03
2022-08-17T12:26:14.707Z,35.95
2022-08-17T12:28:04.399Z,36.01
2022-08-17T12:28:35.544Z,36.17
2022-08-17T12:29:42.104Z,36.28
2022-08-17T12:30:50.426Z,36.35
2022-08-17T12:31:56.201Z,36.38
2022-08-17T12:33:00.443Z,36.47
2022-08-17T12:34:04.534Z,36.42
2022-08-17T12:35:23.331Z,36.50
2022-08-17T12:36:28.737Z,36.34
2022-08-17T12:37:34.805Z,36.34
2022-08-17T12:38:38.189Z,36.43
2022-08-17T12:39:53.983Z,36.50
2022-08-17T12:40:58.564Z,36.45
2022-08-17T12:42:02.801Z,36.51
2022-08-17T12:43:20.813Z,36.86
2022-08-17T12:44:36.011Z,36.94
2022-08-17T12:45:41.292Z,36.92
2022-08-17T12:46:53.314Z,37.11
2022-08-17T12:48:09.109Z,36.97
2022-08-17T12:49:29.007Z,36.91
2022-08-17T12:50:36.560Z,37.03
2022-08-17T12:51:44.852Z,37.08
2022-08-17T12:52:48.444Z,37.42
2022-08-17T12:53:55.081Z,37.44
2022-08-17T12:55:07.892Z,37.32
2022-08-17T12:56:13.003Z,37.20
2022-08-17T12:57:25.465Z,37.08
2022-08-17T12:58:32.099Z,37.03
2022-08-17T12:59:38.840Z,37.20
2022-08-17T13:01:08.298Z,37.23
2022-08-17T13:02:30.468Z,37.25
2022-08-17T13:03:39.669Z,37.40
2022-08-17T13:04:43.030Z,37.50
2022-08-17T13:06:05.757Z,37.50
2022-08-17T13:07:08.886Z,37.46
2022-08-17T13:08:22.725Z,37.50
2022-08-17T13:09:35.664Z,37.46
2022-08-17T13:10:35.559Z,37.50
2022-08-17T13:11:48.161Z,37.59
2022-08-17T13:12:52.008Z,37.55
2022-08-17T13:13:56.413Z,37.33
2022-08-17T13:14:59.838Z,37.17
2022-08-17T13:16:08.588Z,37.18
2022-08-17T13:17:13.730Z,37.13
2022-08-17T13:18:45.785Z,37.23
2022-08-17T13:19:50.893Z,37.10
2022-08-17T13:20:57.681Z,37.26
2022-08-17T13:22:01.569Z,37.33
2022-08-17T13:23:12.374Z,36.97
2022-08-17T13:24:19.971Z,36.88
2022-08-17T13:25:23.924Z,36.77
2022-08-17T13:26:33.385Z,36.84
2022-08-17T13:27:37.694Z,36.51
2022-08-17T13:28:51.217Z,36.34
2022-08-17T13:29:58.995Z,36.31
2022-08-17T13:32:43.032Z,36.32
2022-08-17T13:33:45.139Z,36.25
2022-08-17T13:35:15.207Z,36.39
2022-08-17T13:36:07.795Z,36.19
2022-08-17T13:37:32.195Z,36.15
2022-08-17T13:38:48.186Z,36.17
2022-08-17T13:39:56.124Z,36.20
2022-08-17T13:40:59.365Z,36.28
2022-08-17T13:42:05.890Z,36.14
2022-08-17T13:43:10.337Z,35.95
2022-08-17T13:44:33.169Z,35.93
2022-08-17T13:45:39.734Z,35.83
2022-08-17T13:46:47.245Z,35.92
2022-08-17T13:48:18.737Z,35.86
2022-08-17T13:49:22.152Z,35.74
2022-08-17T13:50:25.560Z,35.35
2022-08-17T13:51:31.031Z,35.32
2022-08-17T13:52:40.401Z,35.27
2022-08-17T13:53:49.328Z,35.13
2022-08-17T13:54:52.340Z,34.93
2022-08-17T13:56:38.373Z,34.79
2022-08-17T13:57:37.320Z,34.51
2022-08-17T13:58:43.473Z,34.41
2022-08-17T13:59:54.124Z,34.09
2022-08-17T14:00:55.767Z,33.91
2022-08-17T14:01:59.332Z,33.82
2022-08-17T14:03:05.007Z,33.60
2022-08-17T14:04:14.572Z,33.51
2022-08-17T14:05:17.693Z,33.48
2022-08-17T14:06:49.247Z,33.43
2022-08-17T14:07:30.161Z,33.34
2022-08-17T14:08:33.183Z,33.15
2022-08-17T14:09:51.671Z,32.98
2022-08-17T14:10:58.123Z,32.84
2022-08-17T14:12:02.651Z,32.52
2022-08-17T14:13:06.859Z,32.32
2022-08-17T14:14:10.730Z,32.32
2022-08-17T14:15:18.772Z,32.44
2022-08-17T14:16:23.340Z,32.47
2022-08-17T14:17:28.439Z,32.26
2022-08-17T14:18:55.850Z,32.25
2022-08-17T14:19:37.349Z,32.19
2022-08-17T14:20:40.819Z,32.35
2022-08-17T14:21:46.149Z,32.30
2022-08-17T14:22:51.763Z,32.41
2022-08-17T14:23:55.148Z,32.38
2022-08-17T14:25:01.065Z,32.45
2022-08-17T14:26:04.791Z,32.62
2022-08-17T14:27:11.410Z,32.60
2022-08-17T14:28:14.308Z,32.63
2022-08-17T14:29:17.518Z,32.85
2022-08-17T14:30:23.481Z,33.03
2022-08-17T14:31:27.122Z,33.15
2022-08-17T14:32:32.667Z,33.28
2022-08-17T14:33:36.352Z,33.22
2022-08-17T14:34:39.289Z,33.06
2022-08-17T14:35:42.331Z,33.05
2022-08-17T14:36:48.393Z,32.92
2022-08-17T14:37:52.517Z,32.91
2022-08-17T14:38:55.915Z,32.95
2022-08-17T14:40:01.522Z,32.91
2022-08-17T14:41:05.062Z,32.90
2022-08-17T14:42:10.188Z,32.94
2022-08-17T14:43:15.075Z,32.96
2022-08-17T14:44:18.378Z,32.94
2022-08-17T14:45:30.250Z,33.31
2022-08-17T14:46:27.248Z,33.37
2022-08-17T14:47:30.315Z,33.36
2022-08-17T14:48:35.161Z,33.29
2022-08-17T14:49:38.281Z,33.34
2022-08-17T14:50:42.656Z,33.43
2022-08-17T14:51:45.626Z,33.61
2022-08-17T14:52:48.616Z,33.69
2022-08-17T14:53:51.615Z,33.92
2022-08-17T14:54:54.868Z,34.22
2022-08-17T14:55:57.879Z,34.44
2022-08-17T14:57:23.010Z,34.25
2022-08-17T14:58:08.194Z,34.46
2022-08-17T14:59:11.350Z,34.49
2022-08-17T15:00:16.038Z,34.64
2022-08-17T15:01:20.536Z,34.84
2022-08-17T15:02:29.719Z,35.01
2022-08-17T15:03:33.111Z,35.16
2022-08-17T15:04:39.782Z,34.98
2022-08-17T15:05:43.675Z,34.82
2022-08-17T15:06:49.430Z,34.75
2022-08-17T15:07:54.364Z,34.68
2022-08-17T15:08:57.378Z,34.60
2022-08-17T15:10:01.926Z,34.61
2022-08-17T15:11:05.671Z,34.64
2022-08-17T15:12:08.975Z,34.72